Terminal Aerodrome Forecast
Issued by NWS Chicago, IL

Home | Current Version | Previous Version | Text Only | Print | Product List | Glossary On
Versions: 1 2 3 4 5 6 7 8 9 10 11 12 13 14 15 16 17 18 19 20 21 22 23 24 25 26 27 28 29
000
FTUS43 KLOT 290542
TAFRFD
TAF
KRFD 290542Z 2906/3006 17012G19KT P6SM FEW050 OVC250
     FM290800 22012G20KT P6SM SCT025 OVC070
      TEMPO 2911/2914 OVC020
     FM291800 24012G18KT P6SM BKN050
     FM292100 24011KT P6SM VCTS BKN050CB
      TEMPO 2922/3002 2SM TSRA OVC035CB
     FM300300 19004KT P6SM VCSH BKN050=

USA.gov is the U.S. government's official web portal to all federal, state and local government web resources and services.